createdAt,value
2018-01-15T00:00:35.369Z,16.30
2018-01-15T00:03:02.585Z,17.87
2018-01-15T00:05:29.108Z,17.90
2018-01-15T00:07:55.535Z,17.48
2018-01-15T00:10:22.124Z,16.42
2018-01-15T00:12:49.330Z,15.60
2018-01-15T00:15:15.797Z,18.15
2018-01-15T00:17:43.004Z,17.62
2018-01-15T00:20:09.454Z,16.30
2018-01-15T00:22:35.882Z,15.10
2018-01-15T00:25:02.299Z,16.80
2018-01-15T00:27:28.753Z,15.95
2018-01-15T00:29:55.196Z,16.80
2018-01-15T00:32:21.706Z,16.87
2018-01-15T00:34:48.198Z,17.05
2018-01-15T00:37:14.692Z,16.52
2018-01-15T00:39:41.167Z,17.10
2018-01-15T00:42:07.573Z,16.65
2018-01-15T00:44:34.082Z,15.48
2018-01-15T00:47:00.609Z,16.35
2018-01-15T00:49:27.034Z,16.58
2018-01-15T00:51:54.165Z,15.50
2018-01-15T00:54:20.772Z,16.85
2018-01-15T00:56:48.184Z,16.25
2018-01-15T00:59:15.417Z,16.10
2018-01-15T01:01:41.893Z,14.60
2018-01-15T01:04:08.351Z,15.35
2018-01-15T01:06:34.742Z,16.33
2018-01-15T01:09:01.149Z,15.55
2018-01-15T01:11:27.672Z,16.30
2018-01-15T01:13:54.240Z,15.98
2018-01-15T01:16:20.643Z,15.90
2018-01-15T01:18:47.133Z,15.80
2018-01-15T01:21:14.309Z,17.42
2018-01-15T01:23:40.697Z,16.73
2018-01-15T01:26:07.156Z,15.43
2018-01-15T01:28:34.453Z,16.17
2018-01-15T01:31:00.894Z,13.93
2018-01-15T01:33:27.337Z,18.23
2018-01-15T01:35:53.843Z,17.02
2018-01-15T01:38:20.301Z,16.80
2018-01-15T01:40:46.709Z,17.70
2018-01-15T01:43:13.280Z,17.62
2018-01-15T01:45:39.807Z,17.50
2018-01-15T01:48:06.256Z,17.70
2018-01-15T01:50:32.685Z,16.80
2018-01-15T01:52:59.076Z,18.40
2018-01-15T01:55:25.607Z,17.70
2018-01-15T01:57:52.177Z,8.02
2018-01-15T02:00:18.572Z,13.48
2018-01-15T02:02:45.073Z,17.45
2018-01-15T02:05:12.358Z,16.77
2018-01-15T02:07:38.744Z,16.33
2018-01-15T02:10:05.287Z,17.35
2018-01-15T02:12:32.506Z,18.20
2018-01-15T02:14:58.945Z,18.05
2018-01-15T02:17:25.433Z,17.48
2018-01-15T02:19:51.940Z,17.45
2018-01-15T02:22:19.094Z,19.23
2018-01-15T02:24:45.606Z,17.17
2018-01-15T02:27:12.024Z,17.60
2018-01-15T02:29:38.416Z,15.20
2018-01-15T02:32:04.857Z,16.60
2018-01-15T02:34:31.281Z,15.70
2018-01-15T02:36:57.830Z,16.62
2018-01-15T02:39:24.530Z,18.70
2018-01-15T02:41:51.699Z,17.98
2018-01-15T02:44:18.181Z,16.92
2018-01-15T02:46:44.645Z,17.12
2018-01-15T02:49:11.797Z,14.27
2018-01-15T02:51:38.934Z,12.02
2018-01-15T02:54:06.153Z,14.82
2018-01-15T02:56:32.600Z,13.02
2018-01-15T02:58:59.040Z,15.75
2018-01-15T03:01:25.449Z,7.97
2018-01-15T03:03:51.865Z,35.80
2018-01-15T03:06:18.306Z,19.27
2018-01-15T03:08:44.737Z,18.87
2018-01-15T03:11:11.246Z,15.70
2018-01-15T03:13:37.657Z,15.27
2018-01-15T03:16:04.803Z,18.83
2018-01-15T03:18:31.240Z,24.48
2018-01-15T03:20:57.672Z,23.85
2018-01-15T03:23:24.072Z,16.12
2018-01-15T03:25:50.484Z,19.62
2018-01-15T03:28:16.903Z,16.27
2018-01-15T03:30:43.336Z,16.35
2018-01-15T03:33:09.734Z,17.70
2018-01-15T03:35:36.344Z,17.20
2018-01-15T03:38:03.486Z,18.12
2018-01-15T03:40:29.853Z,17.08
2018-01-15T03:42:56.256Z,17.58
2018-01-15T03:45:22.680Z,16.30
2018-01-15T03:47:49.298Z,17.90
2018-01-15T03:50:15.795Z,17.48
2018-01-15T03:52:42.271Z,14.90
2018-01-15T03:55:08.650Z,18.92
2018-01-15T03:57:35.024Z,18.23
2018-01-15T04:00:01.444Z,17.42
2018-01-15T04:02:27.846Z,18.30
2018-01-15T04:04:54.324Z,18.37
2018-01-15T04:07:20.737Z,16.62
2018-01-15T04:09:47.163Z,18.65
2018-01-15T04:12:13.660Z,16.83
2018-01-15T04:14:40.777Z,18.50
2018-01-15T04:17:07.240Z,17.02
2018-01-15T04:19:34.417Z,9.93
2018-01-15T04:22:00.862Z,15.23
2018-01-15T04:24:27.272Z,15.65
2018-01-15T04:29:28.525Z,17.37
2018-01-15T04:31:54.936Z,20.42
2018-01-15T04:34:21.418Z,17.92
2018-01-15T04:36:47.792Z,17.73
2018-01-15T04:39:14.266Z,14.90
2018-01-15T04:41:40.649Z,13.00
2018-01-15T04:44:07.018Z,17.48
2018-01-15T04:46:34.186Z,17.50
2018-01-15T04:49:00.560Z,18.90
2018-01-15T04:51:26.969Z,18.23
2018-01-15T04:53:53.372Z,17.00
2018-01-15T04:56:19.781Z,18.27
2018-01-15T04:58:47.032Z,12.95
2018-01-15T05:01:14.140Z,16.45
2018-01-15T05:03:40.668Z,14.45
2018-01-15T05:06:07.060Z,17.92
2018-01-15T05:08:33.487Z,17.33
2018-01-15T05:11:00.636Z,21.55
2018-01-15T05:13:27.782Z,17.10
2018-01-15T05:15:55.017Z,18.15
2018-01-15T05:18:21.396Z,17.85
2018-01-15T05:20:47.777Z,18.12
2018-01-15T05:23:14.396Z,19.87
2018-01-15T05:25:40.772Z,19.65
2018-01-15T05:28:07.297Z,18.30
2018-01-15T05:30:34.451Z,19.20
2018-01-15T05:33:01.572Z,19.77
2018-01-15T05:35:28.561Z,18.87
2018-01-15T05:37:54.951Z,20.05
2018-01-15T05:40:21.358Z,21.52
2018-01-15T05:42:48.600Z,17.95
2018-01-15T05:45:15.036Z,21.85
2018-01-15T05:47:42.187Z,19.12
2018-01-15T05:50:08.585Z,16.42
2018-01-15T05:52:35.027Z,20.02
2018-01-15T05:55:01.461Z,18.95
2018-01-15T05:57:27.898Z,20.30
2018-01-15T05:59:54.357Z,13.48
2018-01-15T06:02:20.748Z,16.35
2018-01-15T06:04:47.148Z,16.73
2018-01-15T06:07:14.457Z,12.73
2018-01-15T06:09:40.864Z,10.57
2018-01-15T06:12:07.261Z,24.80
2018-01-15T06:14:34.524Z,19.27
2018-01-15T06:17:01.699Z,21.25
2018-01-15T06:19:28.828Z,20.30
2018-01-15T06:21:56.090Z,24.87
2018-01-15T06:24:22.464Z,25.73
2018-01-15T06:26:48.875Z,24.60
2018-01-15T06:29:15.268Z,25.50
2018-01-15T06:31:42.382Z,20.80
2018-01-15T06:34:08.828Z,20.77
2018-01-15T06:36:35.213Z,21.42
2018-01-15T06:39:01.651Z,23.85
2018-01-15T06:41:28.055Z,22.73
2018-01-15T06:43:55.199Z,22.20
2018-01-15T06:46:22.377Z,20.67
2018-01-15T06:48:48.832Z,19.23
2018-01-15T06:51:15.234Z,8.13
2018-01-15T06:53:41.631Z,16.48
2018-01-15T06:56:08.794Z,19.15
2018-01-15T06:58:35.955Z,22.83
2018-01-15T07:01:02.391Z,22.40
2018-01-15T07:03:28.897Z,22.55
2018-01-15T07:05:56.088Z,23.77
2018-01-15T07:08:22.512Z,21.83
2018-01-15T07:10:55.812Z,22.77
2018-01-15T07:13:22.232Z,20.27
2018-01-15T07:15:48.697Z,23.95
2018-01-15T07:18:15.095Z,23.38
2018-01-15T07:20:41.511Z,20.80
2018-01-15T07:23:08.668Z,20.83
2018-01-15T07:25:35.134Z,20.88
2018-01-15T07:28:01.561Z,21.50
2018-01-15T07:30:28.105Z,21.52
2018-01-15T07:32:54.492Z,22.08
2018-01-15T07:35:21.636Z,22.50
2018-01-15T07:37:48.788Z,22.02
2018-01-15T07:40:15.961Z,13.18
2018-01-15T07:42:42.365Z,20.25
2018-01-15T07:45:09.540Z,23.83
2018-01-15T07:47:35.963Z,12.15
2018-01-15T07:50:02.330Z,20.45
2018-01-15T07:52:28.859Z,21.50
2018-01-15T07:54:55.268Z,20.75
2018-01-15T07:57:21.772Z,23.85
2018-01-15T07:59:49.029Z,22.95
2018-01-15T08:05:15.239Z,18.50
2018-01-15T08:07:41.647Z,23.25
2018-01-15T08:10:08.059Z,22.87
2018-01-15T08:12:34.684Z,22.65
2018-01-15T08:15:01.880Z,22.45
2018-01-15T08:17:28.257Z,21.60
2018-01-15T08:19:55.611Z,22.05
2018-01-15T08:22:22.852Z,20.73
2018-01-15T08:24:50.006Z,23.27
2018-01-15T08:27:17.176Z,21.65
2018-01-15T08:29:43.545Z,22.87
2018-01-15T08:32:09.919Z,21.80
2018-01-15T08:34:37.086Z,19.37
2018-01-15T08:37:04.236Z,21.58
2018-01-15T08:39:33.320Z,21.67
2018-01-15T08:41:59.708Z,20.75
2018-01-15T08:44:26.105Z,20.58
2018-01-15T08:46:52.780Z,23.25
2018-01-15T08:49:19.174Z,18.80
2018-01-15T08:51:45.569Z,20.70
2018-01-15T08:54:12.696Z,22.25
2018-01-15T08:56:39.129Z,8.57
2018-01-15T08:59:05.504Z,20.70
2018-01-15T09:01:31.949Z,15.65
2018-01-15T09:03:58.420Z,18.95
2018-01-15T09:06:24.876Z,18.73
2018-01-15T09:08:51.280Z,13.65
2018-01-15T09:11:17.868Z,18.90
2018-01-15T09:13:45.021Z,16.15
2018-01-15T09:16:11.459Z,17.17
2018-01-15T09:18:37.847Z,19.17
2018-01-15T09:21:04.233Z,15.70
2018-01-15T09:23:30.628Z,19.08
2018-01-15T09:25:57.754Z,20.58
2018-01-15T09:28:24.230Z,20.27
2018-01-15T09:30:50.695Z,21.45
2018-01-15T09:33:24.116Z,17.60
2018-01-15T09:35:52.084Z,11.60
2018-01-15T09:38:18.468Z,11.82
2018-01-15T09:40:44.932Z,20.85
2018-01-15T09:43:11.393Z,19.95
2018-01-15T09:45:37.801Z,18.50
2018-01-15T09:48:04.208Z,15.20
2018-01-15T09:50:30.657Z,14.52
2018-01-15T09:52:57.103Z,15.27
2018-01-15T09:55:23.456Z,14.32
2018-01-15T09:57:49.925Z,16.52
2018-01-15T10:00:16.309Z,10.50
2018-01-15T10:02:42.673Z,17.90
2018-01-15T10:05:09.092Z,10.38
2018-01-15T10:07:36.245Z,20.62
2018-01-15T10:10:03.413Z,18.35
2018-01-15T10:12:29.936Z,19.92
2018-01-15T10:14:57.129Z,20.60
2018-01-15T10:17:23.678Z,14.85
2018-01-15T10:19:50.181Z,16.70
2018-01-15T10:22:16.613Z,10.07
2018-01-15T10:24:43.145Z,10.57
2018-01-15T10:27:09.633Z,16.20
2018-01-15T10:29:36.061Z,13.70
2018-01-15T10:32:02.466Z,15.90
2018-01-15T10:34:28.890Z,13.48
2018-01-15T10:36:55.306Z,10.70
2018-01-15T10:39:21.780Z,12.13
2018-01-15T10:41:48.238Z,19.95
2018-01-15T10:44:15.420Z,13.55
2018-01-15T10:46:41.869Z,17.67
2018-01-15T10:49:08.276Z,16.55
2018-01-15T10:51:34.755Z,10.15
2018-01-15T10:54:01.156Z,8.85
2018-01-15T10:56:27.592Z,13.52
2018-01-15T10:58:54.051Z,15.43
2018-01-15T11:01:26.281Z,14.77
2018-01-15T11:03:52.751Z,19.48
2018-01-15T11:06:19.153Z,20.75
2018-01-15T11:08:45.591Z,18.75
2018-01-15T11:11:11.981Z,17.77
2018-01-15T11:13:39.272Z,18.85
2018-01-15T11:16:05.694Z,19.02
2018-01-15T11:18:32.169Z,18.62
2018-01-15T11:20:58.590Z,17.62
2018-01-15T11:23:25.004Z,16.62
2018-01-15T11:25:51.520Z,19.30
2018-01-15T11:28:17.999Z,17.50
2018-01-15T11:30:44.429Z,18.27
2018-01-15T11:33:10.876Z,22.10
2018-01-15T11:35:37.379Z,19.58
2018-01-15T11:38:03.854Z,19.35
2018-01-15T11:40:30.288Z,19.37
2018-01-15T11:42:57.514Z,20.30
2018-01-15T11:45:23.932Z,17.60
2018-01-15T11:47:50.396Z,19.00
2018-01-15T11:50:16.796Z,15.55
2018-01-15T11:52:43.246Z,18.95
2018-01-15T11:55:09.669Z,19.20
2018-01-15T11:57:36.576Z,16.95
2018-01-15T12:00:03.016Z,19.15
2018-01-15T12:02:29.456Z,21.25
2018-01-15T12:04:55.888Z,18.58
2018-01-15T12:07:22.332Z,17.85
2018-01-15T12:09:48.769Z,19.45
2018-01-15T12:12:17.305Z,16.10
2018-01-15T12:14:44.472Z,16.52
2018-01-15T12:17:10.904Z,16.62
2018-01-15T12:19:37.356Z,16.92
2018-01-15T12:22:03.768Z,16.30
2018-01-15T12:24:30.196Z,17.45
2018-01-15T12:26:56.662Z,16.48
2018-01-15T12:29:23.094Z,15.43
2018-01-15T12:31:49.634Z,16.10
2018-01-15T12:34:16.858Z,17.95
2018-01-15T12:36:43.289Z,17.55
2018-01-15T12:39:09.689Z,18.35
2018-01-15T12:41:36.890Z,15.73
2018-01-15T12:44:03.329Z,16.95
2018-01-15T12:46:29.788Z,19.20
2018-01-15T12:48:56.241Z,13.35
2018-01-15T12:51:23.428Z,16.58
2018-01-15T12:53:49.852Z,16.23
2018-01-15T12:56:16.239Z,17.35
2018-01-15T12:58:43.458Z,18.25
2018-01-15T13:01:12.124Z,19.33
2018-01-15T13:03:38.539Z,15.98
2018-01-15T13:06:04.946Z,14.32
2018-01-15T13:08:59.129Z,17.15
2018-01-15T13:11:26.464Z,16.35
2018-01-15T13:13:53.154Z,16.80
2018-01-15T13:16:19.600Z,16.98
2018-01-15T13:18:46.025Z,15.85
2018-01-15T13:21:12.438Z,18.85
2018-01-15T13:23:39.013Z,15.32
2018-01-15T13:26:05.413Z,17.48
2018-01-15T13:28:31.956Z,18.92
2018-01-15T13:30:58.380Z,15.52
2018-01-15T13:33:24.766Z,18.65
2018-01-15T13:35:51.219Z,18.35
2018-01-15T13:38:18.376Z,17.10
2018-01-15T13:40:45.641Z,19.35
2018-01-15T13:43:12.105Z,17.95
2018-01-15T13:45:38.545Z,16.55
2018-01-15T13:48:04.990Z,15.30
2018-01-15T13:50:31.380Z,16.85
2018-01-15T13:52:57.790Z,15.07
2018-01-15T13:55:24.194Z,17.67
2018-01-15T13:57:50.658Z,14.50
2018-01-15T14:00:17.177Z,17.75
2018-01-15T14:02:44.463Z,15.43
2018-01-15T14:05:10.924Z,15.10
2018-01-15T14:07:37.416Z,15.60
2018-01-15T14:10:03.804Z,16.98
2018-01-15T14:12:30.367Z,15.50
2018-01-15T14:14:57.520Z,16.15
2018-01-15T14:17:24.710Z,16.42
2018-01-15T14:19:51.223Z,16.98
2018-01-15T14:22:17.732Z,16.60
2018-01-15T14:24:44.921Z,17.30
2018-01-15T14:27:11.344Z,15.50
2018-01-15T14:29:37.797Z,14.95
2018-01-15T14:32:04.344Z,10.40
2018-01-15T14:34:30.768Z,18.60
2018-01-15T14:36:57.177Z,16.50
2018-01-15T14:39:23.582Z,17.48
2018-01-15T14:41:50.785Z,16.10
2018-01-15T14:44:17.913Z,14.27
2018-01-15T14:46:44.290Z,13.80
2018-01-15T14:49:10.793Z,16.90
2018-01-15T14:51:37.184Z,16.45
2018-01-15T14:54:03.656Z,14.48
2018-01-15T14:56:30.076Z,12.32
2018-01-15T14:58:56.629Z,16.77
2018-01-15T15:01:23.072Z,16.42
2018-01-15T15:03:49.497Z,18.20
2018-01-15T15:06:16.023Z,17.87
2018-01-15T15:08:43.075Z,10.98
2018-01-15T15:11:10.770Z,13.20
2018-01-15T15:13:37.958Z,15.45
2018-01-15T15:16:04.764Z,7.62
2018-01-15T15:18:32.139Z,8.68
2018-01-15T15:20:58.779Z,16.08
2018-01-15T15:23:25.321Z,14.48
2018-01-15T15:25:51.951Z,13.80
2018-01-15T15:28:18.882Z,13.20
2018-01-15T15:30:45.728Z,12.32
2018-01-15T15:33:12.407Z,13.20
2018-01-15T15:35:38.941Z,11.05
2018-01-15T15:38:05.618Z,11.57
2018-01-15T15:40:32.293Z,13.82
2018-01-15T15:42:58.957Z,12.80
2018-01-15T15:45:25.568Z,12.30
2018-01-15T15:47:52.601Z,12.95
2018-01-15T15:50:19.266Z,10.13
2018-01-15T15:52:45.960Z,10.40
2018-01-15T15:55:13.250Z,9.20
2018-01-15T15:57:39.800Z,12.95
2018-01-15T16:00:06.581Z,9.70
2018-01-15T16:02:33.869Z,17.00
2018-01-15T16:05:00.393Z,10.73
2018-01-15T16:07:26.992Z,10.38
2018-01-15T16:09:53.521Z,10.23
2018-01-15T16:12:19.959Z,12.93
2018-01-15T16:14:46.660Z,14.90
2018-01-15T16:17:13.213Z,12.60
2018-01-15T16:19:40.440Z,13.20
2018-01-15T16:22:19.062Z,14.35
2018-01-15T16:24:45.506Z,8.32
2018-01-15T16:27:12.019Z,12.37
2018-01-15T16:29:38.464Z,13.90
2018-01-15T16:32:04.912Z,8.38
2018-01-15T16:34:31.387Z,12.10
2018-01-15T16:36:58.538Z,9.85
2018-01-15T16:39:25.972Z,11.77
2018-01-15T16:41:52.462Z,8.15
2018-01-15T16:44:18.917Z,10.70
2018-01-15T16:46:45.431Z,9.52
2018-01-15T16:49:11.863Z,7.75
2018-01-15T16:51:38.331Z,9.10
2018-01-15T16:54:04.903Z,8.40
2018-01-15T16:56:32.233Z,9.82
2018-01-15T16:58:58.871Z,9.10
2018-01-15T17:01:25.504Z,9.60
2018-01-15T17:03:52.203Z,9.90
2018-01-15T17:06:18.739Z,12.27
2018-01-15T17:08:45.499Z,11.25
2018-01-15T17:11:11.984Z,11.15
2018-01-15T17:13:38.444Z,12.37
2018-01-15T17:16:04.896Z,9.60
2018-01-15T17:18:31.360Z,16.90
2018-01-15T17:20:57.869Z,11.60
2018-01-15T17:23:24.299Z,10.57
2018-01-15T17:25:51.609Z,10.32
2018-01-15T17:28:18.137Z,7.43
2018-01-15T17:30:44.596Z,11.57
2018-01-15T17:33:11.121Z,14.30
2018-01-15T17:35:37.581Z,8.90
2018-01-15T17:38:04.119Z,9.75
2018-01-15T17:40:30.626Z,10.23
2018-01-15T17:42:57.188Z,12.50
2018-01-15T17:45:24.003Z,12.82
2018-01-15T17:47:50.466Z,11.18
2018-01-15T17:50:16.988Z,10.18
2018-01-15T17:52:43.510Z,11.15
2018-01-15T17:55:09.987Z,9.35
2018-01-15T17:57:36.544Z,10.85
2018-01-15T18:00:03.033Z,13.40
2018-01-15T18:02:29.526Z,11.85
2018-01-15T18:04:55.973Z,11.20
2018-01-15T18:07:22.475Z,10.98
2018-01-15T18:09:49.818Z,12.88
2018-01-15T18:12:17.021Z,11.15
2018-01-15T18:14:43.721Z,12.57
2018-01-15T18:17:10.938Z,12.50
2018-01-15T18:19:37.548Z,10.35
2018-01-15T18:22:04.050Z,10.32
2018-01-15T18:24:31.218Z,11.73
2018-01-15T18:26:57.711Z,14.00
2018-01-15T18:29:24.940Z,12.88
2018-01-15T18:31:51.449Z,8.70
2018-01-15T18:34:17.876Z,12.18
2018-01-15T18:36:44.441Z,13.00
2018-01-15T18:39:11.082Z,11.68
2018-01-15T18:41:38.462Z,10.98
2018-01-15T18:44:06.056Z,12.63
2018-01-15T18:46:32.908Z,9.85
2018-01-15T18:48:59.430Z,11.35
2018-01-15T18:51:25.994Z,11.27
2018-01-15T18:53:53.051Z,10.43
2018-01-15T18:56:20.552Z,12.57
2018-01-15T18:58:47.056Z,11.38
2018-01-15T19:01:13.786Z,10.18
2018-01-15T19:03:40.287Z,12.10
2018-01-15T19:06:06.748Z,12.55
2018-01-15T19:08:33.340Z,10.07
2018-01-15T19:10:59.877Z,10.32
2018-01-15T19:13:26.885Z,11.95
2018-01-15T19:15:54.963Z,9.73
2018-01-15T19:18:21.699Z,9.52
2018-01-15T19:20:48.896Z,11.10
2018-01-15T19:23:15.427Z,12.65
2018-01-15T19:25:41.902Z,12.20
2018-01-15T19:28:09.448Z,11.12
2018-01-15T19:30:35.925Z,17.70
2018-01-15T19:33:03.458Z,10.95
2018-01-15T19:38:34.646Z,13.07
2018-01-15T19:41:01.290Z,9.10
2018-01-15T19:43:33.944Z,10.13
2018-01-15T19:46:07.283Z,16.15
2018-01-15T19:48:39.646Z,11.65
2018-01-15T19:51:12.297Z,10.82
2018-01-15T19:53:45.492Z,16.75
2018-01-15T19:56:18.721Z,14.80
2018-01-15T19:58:51.326Z,15.88
2018-01-15T20:01:23.774Z,13.57
2018-01-15T20:03:57.349Z,19.15
2018-01-15T20:06:30.917Z,18.12
2018-01-15T20:12:06.353Z,13.20
2018-01-15T20:14:34.879Z,13.10
2018-01-15T20:17:02.060Z,14.30
2018-01-15T20:19:28.833Z,10.90
2018-01-15T20:21:55.401Z,11.27
2018-01-15T20:24:21.990Z,10.85
2018-01-15T20:26:49.622Z,9.00
2018-01-15T20:29:16.167Z,8.30
2018-01-15T20:31:43.591Z,7.68
2018-01-15T20:34:13.587Z,8.95
2018-01-15T20:36:40.834Z,10.40
2018-01-15T20:39:07.360Z,9.82
2018-01-15T20:41:35.209Z,7.87
2018-01-15T20:44:01.959Z,9.48
2018-01-15T20:46:28.432Z,10.00
2018-01-15T20:48:55.766Z,10.82
2018-01-15T20:51:22.202Z,13.18
2018-01-15T20:53:49.433Z,10.40
2018-01-15T20:56:15.853Z,13.52
2018-01-15T20:58:42.383Z,10.23
2018-01-15T21:01:08.843Z,9.00
2018-01-15T21:03:37.841Z,11.15
2018-01-15T21:06:04.248Z,10.25
2018-01-15T21:08:30.753Z,8.88
2018-01-15T21:10:57.951Z,7.00
2018-01-15T21:13:24.506Z,9.82
2018-01-15T21:15:51.713Z,11.35
2018-01-15T21:18:18.342Z,7.50
2018-01-15T21:20:45.672Z,9.00
2018-01-15T21:23:12.151Z,12.00
2018-01-15T21:25:38.662Z,9.65
2018-01-15T21:28:05.932Z,9.90
2018-01-15T21:30:32.425Z,12.95
2018-01-15T21:32:59.013Z,11.80
2018-01-15T21:35:25.498Z,8.57
2018-01-15T21:37:52.189Z,9.20
2018-01-15T21:40:18.736Z,11.25
2018-01-15T21:42:46.388Z,9.68
2018-01-15T21:48:16.909Z,9.68
2018-01-15T21:50:49.555Z,7.78
2018-01-15T21:53:16.435Z,10.63
2018-01-15T21:55:46.487Z,6.20
2018-01-15T21:58:13.016Z,5.75
2018-01-15T22:00:41.740Z,7.10
2018-01-15T22:03:08.483Z,7.47
2018-01-15T22:05:34.998Z,6.35
2018-01-15T22:08:01.578Z,6.10
2018-01-15T22:10:28.142Z,5.12
2018-01-15T22:12:55.346Z,4.95
2018-01-15T22:15:21.840Z,6.10
2018-01-15T22:17:49.033Z,4.50
2018-01-15T22:20:15.816Z,4.30
2018-01-15T22:22:43.013Z,5.22
2018-01-15T22:25:09.999Z,4.00
2018-01-15T22:27:36.742Z,4.30
2018-01-15T22:30:03.378Z,4.70
2018-01-15T22:32:30.211Z,3.85
2018-01-15T22:34:56.877Z,3.90
2018-01-15T22:37:24.262Z,3.87
2018-01-15T22:39:51.165Z,4.70
2018-01-15T22:42:18.628Z,5.35
2018-01-15T22:44:45.386Z,6.90
2018-01-15T22:47:12.725Z,3.22
2018-01-15T22:49:42.334Z,4.50
2018-01-15T22:52:13.692Z,6.18
2018-01-15T22:54:41.745Z,3.50
2018-01-15T22:57:09.556Z,5.78
2018-01-15T22:59:39.940Z,2.90
2018-01-15T23:02:07.451Z,2.60
2018-01-15T23:04:34.139Z,2.95
2018-01-15T23:07:00.921Z,10.13
2018-01-15T23:15:34.558Z,5.80
2018-01-15T23:18:01.566Z,6.90
2018-01-15T23:20:28.811Z,4.55
2018-01-15T23:22:56.404Z,3.97
2018-01-15T23:25:22.876Z,3.62
2018-01-15T23:27:49.300Z,3.10
2018-01-15T23:30:15.714Z,3.25
2018-01-15T23:32:42.133Z,3.92
2018-01-15T23:35:09.501Z,2.90
2018-01-15T23:37:35.943Z,3.83
2018-01-15T23:40:02.405Z,4.20
2018-01-15T23:42:28.789Z,3.90
2018-01-15T23:44:55.333Z,3.17
2018-01-15T23:47:21.750Z,3.03
2018-01-15T23:49:48.450Z,3.10
2018-01-15T23:52:15.123Z,2.90
2018-01-15T23:54:41.568Z,2.70
2018-01-15T23:57:08.024Z,1.58
2018-01-15T23:59:34.413Z,2.05
